• Join FlightAware (Why Join?)
  • Login
  • US Flag 
10:17AM EDT


 

Airport Tracker/Info


-or-


 

Live Flight TrackerFlight Track Log ✈ EJA729 ✈ 20-Jun-2013 ✈ KAPA - KRIL

Flight Track Log - Related Links

Times and Time Zones

All times are in EDT time to prevent confusion due to time zone crossing. See the EJA729 flight status page for this flight to view local times or setup timezone preferences in your user account.

Time Position Orientation Groundspeed Altitude Reporting Facility
EDT Latitude Longitude Course Direction KTS MPH feet Rate Location/Type
09:39AM 39.5167 -104.8667 270° West 238 274 7,900  Level Denver TRACON
09:40AM 39.5167 -104.9333 270° West 245 282 8,900 2,280 Climbing Denver TRACON
09:41AM 39.5500 -105.0000 303° West 247 284 12,300 3,540 Climbing Denver TRACON
09:42AM 39.5972 -105.1069 300° West 277 319 16,900 3,420 Climbing Denver Center
09:43AM 39.6181 -105.2089 285° West 295 339 20,100 2,880 Climbing Denver Center
09:44AM 39.6383 -105.3264 283° West 331 381 22,800 1,380 Climbing Denver Center
09:45AM 39.6644 -105.4789 283° West 414 476 23,000 60 Climbing Denver Center
09:46AM 39.6919 -105.6386 283° West 450 518 23,000  Level Denver Center
09:47AM 39.6828 -105.8028 266° West 455 524 23,000 -180 Level Denver Center
09:48AM 39.6672 -105.9553 262° West 450 518 22,700 -720 Descending Denver Center
09:49AM 39.6478 -106.1219 261° West 465 535 21,600 -1,140 Descending Denver Center
09:50AM 39.6311 -106.2808 262° West 439 505 20,400 -840 Descending Denver Center
09:51AM 39.5919 -106.4200 250° West 407 468 20,000 -240 Descending Denver Center
09:52AM 39.5492 -106.5542 248° West 382 440 20,000 -300 Level Denver Center
09:53AM 39.5017 -106.6978 247° West 389 448 19,500 -1,140 Descending Denver Center
09:54AM 39.4644 -106.8128 247° West 364 419 17,700 -1,860 Descending Denver Center
09:55AM 39.4408 -106.9369 256° West 346 398 15,800 -1,620 Descending Denver Center
09:56AM 39.4719 -107.0408 291° West 345 397 14,500 -1,200 Descending Denver Center
09:57AM 39.5008 -107.1542 288° West 331 381 13,400 -840 Descending Denver Center
09:58AM 39.5311 -107.2803 287° West 329 379 12,900 -1,080 Descending Denver Center
09:59AM 39.5333 -107.3822 272° West 294 338 11,200 -1,680 Descending Denver Center